首页
METAR-TAF:

METAR-TAF

机场 :

巴馬科國際機場

巴馬科, 马里共和国

纬度: 12-32N, 经度: 007-57W, 海拔: 380米

当前天气观测

该预报发布于33分钟前的18:30 UTC
风速6节,风向北转东北
温度 33°C
湿度 10%
气压 1014 hPa
能见度10公里或以上
1500米以下无云,无积雨云

METAR: GABS 211830Z 02006KT CAVOK 33/M03 Q1014 NOSIG

时间: 19:03 (19:03 UTC)

预报

该预报发布于2小时和3分钟前的17:00 UTC
预报有效从21日的 18点(UTC)到 22日的 24点(UTC)
风速8节,风向北转东北
能见度10公里或以上
1500米以下无云,无积雨云

TAF: GABS 211700Z 2118/2224 02008KT CAVOK

超过4000个机场的气象观测和天气预报(METAR&TAF报告)。

可查询的气象台以黄色和红色小点在地图上表示。

将鼠标移到小点上方,可查看气象台名称。

然后点击查看天气观测和预报。

如需切换地图:点击带黑十字的绿色按钮放大地图;点击带横线的绿色按钮缩小地图;或者点击绿色箭头查看邻近地区的地图。


METAR-TAF: